Terminal Aerodrome Forecast
Issued by NWS Jackson, MS

Home | Current Version | Previous Version | Text Only | Print | Product List | Glossary On
Versions: 1 2 3 4 5 6 7 8 9 10 11 12 13
000
FTUS44 KJAN 291320 AAA
TAFGLH
TAF AMD
KGLH 291320Z 2913/3012 13009KT 5SM BR BKN100
     FM291430 15010KT 6SM BR VCSH BKN010 OVC050
     FM291600 16012KT P6SM VCTS BKN020CB BKN050
     FM291830 17015G23KT 5SM -TSRA BKN025CB BKN050
     FM292000 07008KT P6SM VCTS SCT030 BKN050CB
     FM300400 12009KT P6SM VCTS SCT020 BKN040CB
     FM301000 16010G20KT 6SM -TSRA BKN020 BKN050CB=

USA.gov is the U.S. government's official web portal to all federal, state and local government web resources and services.